Time;durP1;ratioP1;P1;durP2;ratioP2;P2;SDS_P1;SDS_P2;PMS_P1;PMS_P2;Temp;Humidity;BMP_temperature;BMP_pressure;BME280_temperature;BME280_humidity;BME280_pressure;Samples;Min_cycle;Max_cycle;Signal;HPM_P1;HPM_P2
2021/07/15 00:00:08;;;;;;;;;;;15.60;99.90;;;;;;5003484;28;19906;-86
2021/07/15 00:02:34;;;;;;;;;;;15.50;99.90;;;;;;4983528;28;20045;-86
2021/07/15 00:04:59;;;;;;;;;;;15.50;99.90;;;;;;4983846;28;19906;-86
2021/07/15 00:07:25;;;;;;;;;;;15.40;99.90;;;;;;4967734;28;19910;-87
2021/07/15 00:09:50;;;;;;;;;;;15.60;99.90;;;;;;4969314;28;19902;-87
2021/07/15 00:12:16;;;;;;;;;;;15.40;99.90;;;;;;4963688;28;20333;-87
2021/07/15 00:14:42;;;;;;;;;;;15.30;99.90;;;;;;4957178;28;19918;-87
2021/07/15 00:17:08;;;;;;;;;;;15.30;99.90;;;;;;4971468;28;19910;-87
2021/07/15 00:19:33;;;;;;;;;;;15.30;99.90;;;;;;4990055;28;20589;-86
2021/07/15 00:21:59;;;;;;;;;;;15.20;99.90;;;;;;4995680;28;20320;-85
2021/07/15 00:24:25;;;;;;;;;;;15.20;99.90;;;;;;4975718;28;20017;-85
2021/07/15 00:26:52;;;;;;;;;;;15.20;99.90;;;;;;4975895;28;19917;-86
2021/07/15 00:29:18;;;;;;;;;;;15.20;99.90;;;;;;4975703;28;19910;-86
2021/07/15 00:31:49;;;;;;;;;;;15.10;99.90;;;;;;4965882;28;19913;-85
2021/07/15 00:34:17;;;;;;;;;;;15.10;99.90;;;;;;4971677;28;19933;-86
2021/07/15 00:36:43;;;;;;;;;;;15.10;99.90;;;;;;4994731;28;19906;-86
2021/07/15 00:39:09;;;;;;;;;;;15.00;99.90;;;;;;4994373;28;20011;-86
2021/07/15 00:41:35;;;;;;;;;;;15.00;99.90;;;;;;4977461;28;19973;-85
2021/07/15 00:44:00;;;;;;;;;;;15.00;99.90;;;;;;4957353;28;19929;-86
2021/07/15 00:46:26;;;;;;;;;;;15.00;99.90;;;;;;4956411;28;19910;-86
2021/07/15 00:48:51;;;;;;;;;;;15.00;99.90;;;;;;4954583;28;20012;-86
2021/07/15 00:51:17;;;;;;;;;;;15.00;99.90;;;;;;4966764;28;20276;-86
2021/07/15 00:53:43;;;;;;;;;;;14.90;99.90;;;;;;4975395;28;19913;-86
2021/07/15 00:56:10;;;;;;;;;;;14.90;99.90;;;;;;4974931;28;19914;-86
2021/07/15 00:58:36;;;;;;;;;;;14.90;99.90;;;;;;4974572;28;20346;-86
2021/07/15 01:01:02;;;;;;;;;;;14.90;99.90;;;;;;4979485;28;19913;-86
2021/07/15 01:03:27;;;;;;;;;;;14.90;99.90;;;;;;4977095;28;19909;-86
2021/07/15 01:05:54;;;;;;;;;;;14.80;99.90;;;;;;4975957;28;19910;-86
2021/07/15 01:08:20;;;;;;;;;;;14.80;99.90;;;;;;4975861;28;19906;-87
2021/07/15 01:10:48;;;;;;;;;;;14.80;99.90;;;;;;4974085;28;19956;-86
2021/07/15 01:13:33;;;;;;;;;;;14.70;99.90;;;;;;4976422;28;20376;-87
2021/07/15 01:16:06;;;;;;;;;;;14.70;99.90;;;;;;4976610;28;20009;-86
2021/07/15 01:18:35;;;;;;;;;;;14.60;99.90;;;;;;4970350;28;19910;-86
2021/07/15 01:21:12;;;;;;;;;;;14.60;99.90;;;;;;4974031;28;20029;-86
2021/07/15 01:23:56;;;;;;;;;;;14.60;99.90;;;;;;4958625;28;19940;-86
2021/07/15 01:26:41;;;;;;;;;;;14.50;99.90;;;;;;4973341;28;19913;-87
2021/07/15 01:29:23;;;;;;;;;;;14.50;99.90;;;;;;4956718;28;19917;-86
2021/07/15 01:31:51;;;;;;;;;;;14.50;99.90;;;;;;4958272;28;19917;-86
2021/07/15 01:34:17;;;;;;;;;;;14.50;99.90;;;;;;4972660;28;20027;-87
2021/07/15 01:36:45;;;;;;;;;;;14.40;99.90;;;;;;4974582;28;19942;-86
2021/07/15 01:39:12;;;;;;;;;;;14.50;99.90;;;;;;4976633;28;19997;-86
2021/07/15 01:41:39;;;;;;;;;;;14.40;99.90;;;;;;4976220;28;19968;-86
2021/07/15 01:44:07;;;;;;;;;;;14.40;99.90;;;;;;4975718;28;19913;-86
2021/07/15 01:46:33;;;;;;;;;;;14.40;99.90;;;;;;4975806;28;19917;-86
2021/07/15 01:48:59;;;;;;;;;;;14.40;99.90;;;;;;4992605;28;20301;-86
2021/07/15 01:51:25;;;;;;;;;;;14.40;99.90;;;;;;4992225;28;19993;-86
2021/07/15 01:53:51;;;;;;;;;;;14.40;99.90;;;;;;4991922;28;19930;-87
2021/07/15 01:56:17;;;;;;;;;;;14.40;99.90;;;;;;4957313;28;20329;-87
2021/07/15 01:58:44;;;;;;;;;;;14.40;99.90;;;;;;4974259;28;19960;-86
2021/07/15 02:01:09;;;;;;;;;;;14.70;99.90;;;;;;4976528;28;19979;-86
2021/07/15 02:03:37;;;;;;;;;;;14.30;99.90;;;;;;4971806;28;20392;-86
2021/07/15 02:06:03;;;;;;;;;;;14.30;99.90;;;;;;4957854;28;19997;-86
2021/07/15 02:08:29;;;;;;;;;;;14.70;99.90;;;;;;4955553;29;19902;-87
2021/07/15 02:10:55;;;;;;;;;;;14.20;99.90;;;;;;4978582;28;20431;-87
2021/07/15 02:13:22;;;;;;;;;;;14.20;99.90;;;;;;4975136;28;19949;-86
2021/07/15 02:15:48;;;;;;;;;;;14.30;99.90;;;;;;4977301;28;19906;-87
2021/07/15 02:18:15;;;;;;;;;;;14.30;99.90;;;;;;4988074;28;19914;-86
2021/07/15 02:20:41;;;;;;;;;;;14.30;99.90;;;;;;4959992;28;19906;-87
2021/07/15 02:23:07;;;;;;;;;;;14.20;99.90;;;;;;4971242;28;19910;-86
2021/07/15 02:25:33;;;;;;;;;;;14.20;99.90;;;;;;4958003;28;20352;-86
2021/07/15 02:27:59;;;;;;;;;;;14.20;99.90;;;;;;4975720;28;19926;-86
2021/07/15 02:30:25;;;;;;;;;;;14.20;99.90;;;;;;4981580;28;19929;-86
2021/07/15 02:32:55;;;;;;;;;;;14.30;99.90;;;;;;4970236;28;19976;-86
2021/07/15 02:35:26;;;;;;;;;;;14.30;99.90;;;;;;4990947;28;19981;-86
2021/07/15 02:37:54;;;;;;;;;;;14.20;99.90;;;;;;4976152;28;20012;-86
2021/07/15 02:40:19;;;;;;;;;;;14.50;99.90;;;;;;4983977;28;19960;-86
2021/07/15 02:42:45;;;;;;;;;;;14.20;99.90;;;;;;4977502;28;19968;-86
2021/07/15 02:45:13;;;;;;;;;;;14.20;99.90;;;;;;4974867;28;19913;-86
2021/07/15 02:47:39;;;;;;;;;;;14.20;99.90;;;;;;4974802;28;19913;-87
2021/07/15 02:50:05;;;;;;;;;;;14.20;99.90;;;;;;4980054;28;19918;-86
2021/07/15 02:52:30;;;;;;;;;;;14.30;99.90;;;;;;4956371;28;20002;-87
2021/07/15 02:54:56;;;;;;;;;;;14.80;99.90;;;;;;4972228;28;20320;-86
2021/07/15 02:57:21;;;;;;;;;;;14.50;99.90;;;;;;4970582;28;19914;-88
2021/07/15 02:59:52;;;;;;;;;;;14.40;99.90;;;;;;4980814;28;20292;-87
2021/07/15 03:02:21;;;;;;;;;;;14.50;99.90;;;;;;4961071;28;19909;-87
2021/07/15 03:04:59;;;;;;;;;;;14.50;99.90;;;;;;4999714;28;20352;-87
2021/07/15 03:07:25;;;;;;;;;;;14.50;99.90;;;;;;4991577;28;19906;-86
2021/07/15 03:09:52;;;;;;;;;;;14.50;99.90;;;;;;4998398;28;19993;-87
2021/07/15 03:12:20;;;;;;;;;;;14.70;99.90;;;;;;5000118;28;19941;-85
2021/07/15 03:14:46;;;;;;;;;;;14.60;99.90;;;;;;4982651;28;20313;-86
2021/07/15 03:17:18;;;;;;;;;;;14.70;99.90;;;;;;4959874;29;19949;-86
2021/07/15 03:19:45;;;;;;;;;;;14.70;99.90;;;;;;4974709;28;19946;-86
2021/07/15 03:22:11;;;;;;;;;;;14.80;99.90;;;;;;4973625;28;19906;-86
2021/07/15 03:24:39;;;;;;;;;;;14.80;99.90;;;;;;4963759;28;19918;-86
2021/07/15 03:27:05;;;;;;;;;;;14.70;99.90;;;;;;4959067;29;19969;-87
2021/07/15 03:29:33;;;;;;;;;;;14.80;99.90;;;;;;4959720;28;19962;-86
2021/07/15 03:32:01;;;;;;;;;;;14.80;99.90;;;;;;4963519;28;20225;-86
2021/07/15 03:34:30;;;;;;;;;;;14.80;99.90;;;;;;4965319;28;19920;-87
2021/07/15 03:36:57;;;;;;;;;;;14.80;99.90;;;;;;4977195;28;19914;-86
2021/07/15 03:39:22;;;;;;;;;;;14.80;99.90;;;;;;4976812;28;19916;-87
2021/07/15 03:41:48;;;;;;;;;;;14.80;99.90;;;;;;4981834;28;20016;-86
2021/07/15 03:44:14;;;;;;;;;;;14.80;99.90;;;;;;4979076;28;19906;-86
2021/07/15 03:46:41;;;;;;;;;;;14.70;99.90;;;;;;4983554;28;19906;-86
2021/07/15 03:49:07;;;;;;;;;;;14.70;99.90;;;;;;4958019;29;19907;-87
2021/07/15 03:51:36;;;;;;;;;;;14.70;99.90;;;;;;4959993;28;19907;-86
2021/07/15 03:54:02;;;;;;;;;;;14.80;99.90;;;;;;4958834;29;20238;-87
2021/07/15 03:56:29;;;;;;;;;;;14.80;99.90;;;;;;4991149;28;19906;-86
2021/07/15 03:59:00;;;;;;;;;;;14.80;99.90;;;;;;4960473;28;19982;-86
2021/07/15 04:01:29;;;;;;;;;;;14.80;99.90;;;;;;4969399;28;20143;-87
2021/07/15 04:03:55;;;;;;;;;;;14.90;99.90;;;;;;4977574;28;19910;-87
2021/07/15 04:06:22;;;;;;;;;;;14.90;99.90;;;;;;4969340;28;19918;-87
2021/07/15 04:08:48;;;;;;;;;;;14.90;99.90;;;;;;4959453;29;19910;-87
2021/07/15 04:11:16;;;;;;;;;;;15.00;99.90;;;;;;4976813;28;19913;-87
2021/07/15 04:13:43;;;;;;;;;;;14.90;99.90;;;;;;4993042;28;19906;-86
2021/07/15 04:16:13;;;;;;;;;;;14.90;99.90;;;;;;4984710;28;19910;-87
2021/07/15 04:18:39;;;;;;;;;;;14.80;99.90;;;;;;4974093;28;19910;-87
2021/07/15 04:21:05;;;;;;;;;;;14.90;99.90;;;;;;4977705;28;20498;-87
2021/07/15 04:23:31;;;;;;;;;;;14.90;99.90;;;;;;4979943;28;20287;-86
2021/07/15 04:25:57;;;;;;;;;;;15.00;99.90;;;;;;4971654;28;19917;-86
2021/07/15 04:28:24;;;;;;;;;;;15.00;99.90;;;;;;4972374;28;19995;-87
2021/07/15 04:30:59;;;;;;;;;;;15.00;99.90;;;;;;4967758;28;19910;-86
2021/07/15 04:33:25;;;;;;;;;;;15.00;99.90;;;;;;4968346;28;19925;-87
2021/07/15 04:35:54;;;;;;;;;;;14.90;99.90;;;;;;4995849;28;19915;-87
2021/07/15 04:38:21;;;;;;;;;;;14.90;99.90;;;;;;4995303;28;19910;-87
2021/07/15 04:40:48;;;;;;;;;;;14.90;99.90;;;;;;4981012;28;19914;-87
2021/07/15 04:43:15;;;;;;;;;;;14.90;99.90;;;;;;4994075;28;19956;-87
2021/07/15 04:45:41;;;;;;;;;;;15.00;99.90;;;;;;4975010;28;19917;-86
2021/07/15 04:48:08;;;;;;;;;;;15.00;99.90;;;;;;4975599;28;19910;-87
2021/07/15 04:50:37;;;;;;;;;;;15.00;99.90;;;;;;4977297;28;19910;-87
2021/07/15 04:53:04;;;;;;;;;;;15.10;99.90;;;;;;4972764;28;20018;-87
2021/07/15 04:55:33;;;;;;;;;;;15.10;99.90;;;;;;4975238;28;19913;-86
2021/07/15 04:58:00;;;;;;;;;;;15.20;99.90;;;;;;4974242;28;19918;-86
2021/07/15 05:00:26;;;;;;;;;;;15.20;99.90;;;;;;4974531;28;19910;-87
2021/07/15 05:03:09;;;;;;;;;;;15.10;99.90;;;;;;4973880;28;19953;-86
2021/07/15 05:05:35;;;;;;;;;;;15.10;99.90;;;;;;4972751;28;19910;-86
2021/07/15 05:08:00;;;;;;;;;;;15.20;99.90;;;;;;4971791;28;20274;-86
2021/07/15 05:10:27;;;;;;;;;;;15.20;99.90;;;;;;4974547;28;19906;-86
2021/07/15 05:12:53;;;;;;;;;;;15.20;99.90;;;;;;4967315;28;19911;-86
2021/07/15 05:15:19;;;;;;;;;;;15.20;99.90;;;;;;4970592;28;19933;-85
2021/07/15 05:17:44;;;;;;;;;;;15.30;99.90;;;;;;4971103;28;19934;-85
2021/07/15 05:20:13;;;;;;;;;;;15.30;99.90;;;;;;4973456;28;19917;-86
2021/07/15 05:22:39;;;;;;;;;;;15.30;99.90;;;;;;4972009;28;19939;-86
2021/07/15 05:25:08;;;;;;;;;;;15.40;99.90;;;;;;4972140;28;20287;-86
2021/07/15 05:27:40;;;;;;;;;;;15.50;99.90;;;;;;4971926;28;19906;-86
2021/07/15 05:30:06;;;;;;;;;;;15.60;99.90;;;;;;4973939;28;19912;-87
2021/07/15 05:32:32;;;;;;;;;;;15.60;99.90;;;;;;4974384;28;20284;-86
2021/07/15 05:34:57;;;;;;;;;;;16.20;99.90;;;;;;4975270;28;19910;-86
2021/07/15 05:37:23;;;;;;;;;;;15.70;99.90;;;;;;4973671;28;20012;-87
2021/07/15 05:39:49;;;;;;;;;;;15.70;99.90;;;;;;4972208;28;19914;-86
2021/07/15 05:42:14;;;;;;;;;;;15.90;99.90;;;;;;4994420;23;19961;-79
2021/07/15 05:44:40;;;;;;;;;;;15.70;99.90;;;;;;4966624;28;19907;-81
2021/07/15 05:47:07;;;;;;;;;;;15.70;99.90;;;;;;4967581;28;20388;-80
2021/07/15 05:49:36;;;;;;;;;;;15.70;99.90;;;;;;4961649;28;19924;-81
2021/07/15 05:52:05;;;;;;;;;;;15.70;99.90;;;;;;4953695;28;20009;-81
2021/07/15 05:54:31;;;;;;;;;;;15.70;99.90;;;;;;4946600;28;20155;-80
2021/07/15 05:56:57;;;;;;;;;;;15.60;99.90;;;;;;4951009;28;20001;-81
2021/07/15 05:59:22;;;;;;;;;;;15.60;99.90;;;;;;4963472;28;19969;-80
2021/07/15 06:01:47;;;;;;;;;;;15.60;99.90;;;;;;4974922;28;20368;-79
2021/07/15 06:04:13;;;;;;;;;;;15.70;99.90;;;;;;4954658;28;19921;-80
2021/07/15 06:06:38;;;;;;;;;;;15.70;99.90;;;;;;4962901;28;19964;-80
2021/07/15 06:09:04;;;;;;;;;;;15.80;99.90;;;;;;4966502;28;19906;-80
2021/07/15 06:11:29;;;;;;;;;;;15.60;99.90;;;;;;4967776;28;20292;-80
2021/07/15 06:13:55;;;;;;;;;;;15.60;99.90;;;;;;4964879;28;20001;-80
2021/07/15 06:16:21;;;;;;;;;;;15.60;99.90;;;;;;4967909;28;20292;-80
2021/07/15 06:18:46;;;;;;;;;;;15.60;99.90;;;;;;4963924;28;20361;-80
2021/07/15 06:21:12;;;;;;;;;;;15.60;99.90;;;;;;4965503;28;19969;-80
2021/07/15 06:23:37;;;;;;;;;;;15.70;99.90;;;;;;4968821;28;19913;-80
2021/07/15 06:26:04;;;;;;;;;;;15.80;99.90;;;;;;4965257;28;20481;-81
2021/07/15 06:28:30;;;;;;;;;;;15.80;99.90;;;;;;4966808;28;19912;-80
2021/07/15 06:30:55;;;;;;;;;;;15.90;99.90;;;;;;4964403;28;20304;-80
2021/07/15 06:33:21;;;;;;;;;;;15.80;99.90;;;;;;4968454;28;19914;-80
2021/07/15 06:35:50;;;;;;;;;;;15.90;99.90;;;;;;4955465;28;20758;-80
2021/07/15 06:38:16;;;;;;;;;;;15.90;99.90;;;;;;4963753;28;20291;-80
2021/07/15 06:40:45;;;;;;;;;;;16.00;99.90;;;;;;4966356;28;20399;-80
2021/07/15 06:43:10;;;;;;;;;;;16.00;99.90;;;;;;4967244;28;20504;-81
2021/07/15 06:45:36;;;;;;;;;;;16.10;99.90;;;;;;4961948;28;19953;-81
2021/07/15 06:48:01;;;;;;;;;;;16.20;99.90;;;;;;4953939;28;19906;-80
2021/07/15 06:50:27;;;;;;;;;;;16.40;99.90;;;;;;4970551;28;19906;-80
2021/07/15 06:52:53;;;;;;;;;;;16.50;99.90;;;;;;4965476;28;19978;-80
2021/07/15 06:55:19;;;;;;;;;;;16.50;99.90;;;;;;4959850;28;20001;-80
2021/07/15 06:57:44;;;;;;;;;;;16.60;99.90;;;;;;4951963;29;19914;-79
2021/07/15 07:00:12;;;;;;;;;;;16.60;99.90;;;;;;4952360;29;20031;-79
2021/07/15 07:02:41;;;;;;;;;;;16.60;99.90;;;;;;4948711;28;19956;-80
2021/07/15 07:05:07;;;;;;;;;;;16.60;99.90;;;;;;4953220;28;19911;-79
2021/07/15 07:07:33;;;;;;;;;;;16.60;99.90;;;;;;4950534;28;19906;-79
2021/07/15 07:09:59;;;;;;;;;;;16.50;99.90;;;;;;4953072;28;19968;-79
2021/07/15 07:12:25;;;;;;;;;;;16.50;99.90;;;;;;4947468;29;19910;-80
2021/07/15 07:14:50;;;;;;;;;;;16.50;99.90;;;;;;4951807;29;19907;-80
2021/07/15 07:17:16;;;;;;;;;;;16.50;99.90;;;;;;4951600;29;19965;-80
2021/07/15 07:19:41;;;;;;;;;;;16.40;99.90;;;;;;4940723;29;20414;-79
2021/07/15 07:22:07;;;;;;;;;;;16.40;99.90;;;;;;4944286;29;19913;-79
2021/07/15 07:24:32;;;;;;;;;;;16.40;99.90;;;;;;4952624;29;19906;-80
2021/07/15 07:26:58;;;;;;;;;;;16.50;99.90;;;;;;4952642;29;19906;-81
2021/07/15 07:29:24;;;;;;;;;;;16.60;99.90;;;;;;4953241;28;20288;-80
2021/07/15 07:31:49;;;;;;;;;;;16.60;99.90;;;;;;4965153;28;19910;-82
2021/07/15 07:34:15;;;;;;;;;;;16.60;99.90;;;;;;4969241;28;20333;-81
2021/07/15 07:36:40;;;;;;;;;;;16.60;99.90;;;;;;4960530;28;20278;-82
2021/07/15 07:39:06;;;;;;;;;;;16.70;99.90;;;;;;4955215;29;19920;-81
2021/07/15 07:41:32;;;;;;;;;;;16.70;99.90;;;;;;4955467;28;20420;-81
2021/07/15 07:43:58;;;;;;;;;;;16.80;99.90;;;;;;4956153;28;19910;-81
2021/07/15 07:46:23;;;;;;;;;;;16.80;99.90;;;;;;4954192;28;20484;-80
2021/07/15 07:48:50;;;;;;;;;;;16.90;99.90;;;;;;4960109;28;19961;-80
2021/07/15 07:51:16;;;;;;;;;;;17.20;99.90;;;;;;4953983;28;20317;-80
2021/07/15 07:53:41;;;;;;;;;;;17.40;99.90;;;;;;4964129;28;19921;-80
2021/07/15 07:56:07;;;;;;;;;;;17.60;99.90;;;;;;4964987;28;19910;-84
2021/07/15 07:58:32;;;;;;;;;;;17.70;99.90;;;;;;4962577;28;20324;-82
2021/07/15 08:00:58;;;;;;;;;;;17.80;99.90;;;;;;4972548;28;19906;-80
2021/07/15 08:03:23;;;;;;;;;;;17.80;99.90;;;;;;4970086;28;19912;-81
2021/07/15 08:05:49;;;;;;;;;;;17.80;99.90;;;;;;4973998;28;19955;-81
2021/07/15 08:08:17;;;;;;;;;;;17.80;99.90;;;;;;4965827;28;20428;-79
2021/07/15 08:10:43;;;;;;;;;;;17.80;99.90;;;;;;4965835;28;19956;-82
2021/07/15 08:13:08;;;;;;;;;;;17.80;99.90;;;;;;4969651;28;19949;-82
2021/07/15 08:15:34;;;;;;;;;;;17.90;99.90;;;;;;4968831;28;19906;-81
2021/07/15 08:17:59;;;;;;;;;;;17.90;99.90;;;;;;4962374;28;19969;-80
2021/07/15 08:20:25;;;;;;;;;;;17.90;99.90;;;;;;4964544;28;19915;-80
2021/07/15 08:22:51;;;;;;;;;;;17.90;99.90;;;;;;4958388;28;19906;-81
2021/07/15 08:25:19;;;;;;;;;;;17.90;99.90;;;;;;4963441;28;19911;-81
2021/07/15 08:27:45;;;;;;;;;;;18.00;99.90;;;;;;4951259;29;19965;-81
2021/07/15 08:30:12;;;;;;;;;;;17.80;99.90;;;;;;4958492;28;20392;-81
2021/07/15 08:32:38;;;;;;;;;;;17.90;99.90;;;;;;4960756;28;19956;-79
2021/07/15 08:35:04;;;;;;;;;;;18.20;99.90;;;;;;4962002;28;19941;-80
2021/07/15 08:37:30;;;;;;;;;;;18.20;99.90;;;;;;4936968;29;20009;-81
2021/07/15 08:39:55;;;;;;;;;;;18.30;99.90;;;;;;4943070;28;20001;-82
2021/07/15 08:42:21;;;;;;;;;;;18.20;99.90;;;;;;4965771;28;19926;-81
2021/07/15 08:44:47;;;;;;;;;;;18.00;99.90;;;;;;4972491;28;20068;-81
2021/07/15 08:47:13;;;;;;;;;;;18.00;99.90;;;;;;4971191;28;19906;-81
2021/07/15 08:49:39;;;;;;;;;;;18.00;99.90;;;;;;4980901;28;19906;-79
2021/07/15 08:52:05;;;;;;;;;;;17.80;99.90;;;;;;4965954;28;19921;-81
2021/07/15 08:54:53;;;;;;;;;;;17.80;99.90;;;;;;4968211;28;19919;-81
2021/07/15 08:57:18;;;;;;;;;;;17.90;99.90;;;;;;4968978;28;19918;-81
2021/07/15 08:59:44;;;;;;;;;;;17.90;99.90;;;;;;4964500;28;19906;-81
2021/07/15 09:02:18;;;;;;;;;;;18.00;99.90;;;;;;4953200;29;19921;-81
2021/07/15 09:04:43;;;;;;;;;;;18.10;99.90;;;;;;4955674;28;19915;-81
2021/07/15 09:07:09;;;;;;;;;;;18.30;99.90;;;;;;4969663;28;19906;-81
2021/07/15 09:09:35;;;;;;;;;;;18.30;99.90;;;;;;4973566;28;20895;-81
2021/07/15 09:12:01;;;;;;;;;;;18.40;99.90;;;;;;4939791;28;20258;-82
2021/07/15 09:14:26;;;;;;;;;;;18.60;99.90;;;;;;4949032;29;19922;-80
2021/07/15 09:16:54;;;;;;;;;;;18.80;99.90;;;;;;4949172;29;20368;-81
2021/07/15 09:19:22;;;;;;;;;;;18.90;99.90;;;;;;4954983;28;20063;-81
2021/07/15 09:21:47;;;;;;;;;;;18.80;99.90;;;;;;4968109;28;20364;-81
2021/07/15 09:24:30;;;;;;;;;;;18.80;99.90;;;;;;4967039;28;19914;-81
2021/07/15 09:26:56;;;;;;;;;;;18.80;99.90;;;;;;4969815;28;19910;-81
2021/07/15 09:29:22;;;;;;;;;;;18.70;99.90;;;;;;4953386;28;19917;-80
2021/07/15 09:31:51;;;;;;;;;;;18.60;99.90;;;;;;4972256;28;19910;-82
2021/07/15 09:34:16;;;;;;;;;;;18.40;99.90;;;;;;4963267;28;20362;-81
2021/07/15 09:36:42;;;;;;;;;;;18.40;99.90;;;;;;4961103;28;20005;-81
2021/07/15 09:39:19;;;;;;;;;;;18.50;99.90;;;;;;4962433;28;20061;-83
2021/07/15 09:42:04;;;;;;;;;;;18.70;99.90;;;;;;4966259;28;20022;-81
2021/07/15 09:44:31;;;;;;;;;;;18.60;99.90;;;;;;4965537;28;19913;-80
2021/07/15 09:46:56;;;;;;;;;;;18.70;99.90;;;;;;4955967;28;19917;-80
2021/07/15 09:49:32;;;;;;;;;;;18.90;99.90;;;;;;4963063;28;19906;-79
2021/07/15 09:51:59;;;;;;;;;;;19.00;99.90;;;;;;4965121;28;19921;-79
2021/07/15 09:54:25;;;;;;;;;;;19.00;99.90;;;;;;4964024;28;19910;-80
2021/07/15 09:56:51;;;;;;;;;;;19.10;99.90;;;;;;4963577;28;20000;-79
2021/07/15 09:59:16;;;;;;;;;;;19.00;99.90;;;;;;4961173;28;20057;-79
2021/07/15 10:01:43;;;;;;;;;;;19.10;99.90;;;;;;4957300;28;19942;-80
2021/07/15 10:04:09;;;;;;;;;;;19.10;99.90;;;;;;4952823;28;19914;-80
2021/07/15 10:06:48;;;;;;;;;;;19.30;99.90;;;;;;4968611;28;19906;-81
2021/07/15 10:09:24;;;;;;;;;;;19.50;99.90;;;;;;4980373;28;20051;-81
2021/07/15 10:11:54;;;;;;;;;;;19.90;99.90;;;;;;4961191;28;20424;-81
2021/07/15 10:14:29;;;;;;;;;;;20.00;99.90;;;;;;4963507;28;19917;-82
2021/07/15 10:16:54;;;;;;;;;;;20.20;99.90;;;;;;4976931;28;19910;-80
2021/07/15 10:19:21;;;;;;;;;;;20.60;99.90;;;;;;4960414;28;19994;-82
2021/07/15 10:21:55;;;;;;;;;;;20.50;99.90;;;;;;4966786;28;19964;-81
2021/07/15 10:24:21;;;;;;;;;;;20.30;99.90;;;;;;4967951;28;19909;-82
2021/07/15 10:26:48;;;;;;;;;;;20.30;99.90;;;;;;4972190;28;19997;-81
2021/07/15 10:29:15;;;;;;;;;;;20.30;99.90;;;;;;4968580;28;19906;-82
2021/07/15 10:31:41;;;;;;;;;;;20.50;99.90;;;;;;4969331;28;19970;-82
2021/07/15 10:34:07;;;;;;;;;;;20.60;99.90;;;;;;4968385;28;19970;-82
2021/07/15 10:36:33;;;;;;;;;;;20.80;99.90;;;;;;4968365;28;20000;-82
2021/07/15 10:38:59;;;;;;;;;;;20.80;99.90;;;;;;4972085;28;20018;-82
2021/07/15 10:41:26;;;;;;;;;;;20.70;99.90;;;;;;4969679;28;20273;-82
2021/07/15 10:43:53;;;;;;;;;;;21.00;99.90;;;;;;4970747;28;19995;-82
2021/07/15 10:46:19;;;;;;;;;;;21.00;99.90;;;;;;4967180;28;19942;-80
2021/07/15 10:48:46;;;;;;;;;;;21.10;99.90;;;;;;4975283;28;19925;-81
2021/07/15 10:51:12;;;;;;;;;;;21.00;99.90;;;;;;4977191;28;19910;-81
2021/07/15 10:53:39;;;;;;;;;;;20.90;99.90;;;;;;4974943;28;20026;-81
2021/07/15 10:56:05;;;;;;;;;;;20.70;99.90;;;;;;4963684;28;19914;-82
2021/07/15 10:58:50;;;;;;;;;;;20.70;99.90;;;;;;4969829;28;19910;-82
2021/07/15 11:01:35;;;;;;;;;;;20.60;99.90;;;;;;4970877;28;19937;-81
2021/07/15 11:04:14;;;;;;;;;;;20.50;99.90;;;;;;4965991;28;19913;-81
2021/07/15 11:06:47;;;;;;;;;;;20.30;99.90;;;;;;4954053;28;19926;-80
2021/07/15 11:09:29;;;;;;;;;;;20.10;99.90;;;;;;4975768;28;20471;-80
2021/07/15 11:11:56;;;;;;;;;;;19.90;99.90;;;;;;4970197;28;19910;-81
2021/07/15 11:14:37;;;;;;;;;;;19.70;99.90;;;;;;4970076;28;20300;-81
2021/07/15 11:17:22;;;;;;;;;;;19.70;99.90;;;;;;4955328;28;19915;-80
2021/07/15 11:19:55;;;;;;;;;;;19.70;99.90;;;;;;4966140;28;20281;-82
2021/07/15 11:22:39;;;;;;;;;;;19.80;99.90;;;;;;4968978;28;19918;-81
2021/07/15 11:25:09;;;;;;;;;;;19.80;99.90;;;;;;4977573;28;19953;-80
2021/07/15 11:27:37;;;;;;;;;;;20.00;99.90;;;;;;4972077;28;19914;-80
2021/07/15 11:30:04;;;;;;;;;;;20.00;99.90;;;;;;4972064;28;19910;-81
2021/07/15 11:32:30;;;;;;;;;;;20.00;99.90;;;;;;4970561;28;19910;-80
2021/07/15 11:34:56;;;;;;;;;;;20.00;99.90;;;;;;4972718;28;19940;-82
2021/07/15 11:37:25;;;;;;;;;;;20.10;99.90;;;;;;4976851;28;19997;-81
2021/07/15 11:39:51;;;;;;;;;;;20.20;99.90;;;;;;4965455;28;20450;-82
2021/07/15 11:42:17;;;;;;;;;;;20.30;99.90;;;;;;4972099;28;19914;-82
2021/07/15 11:45:00;;;;;;;;;;;20.50;99.90;;;;;;4977373;28;19910;-82
2021/07/15 11:47:46;;;;;;;;;;;20.50;99.90;;;;;;4974764;28;19917;-82
2021/07/15 11:50:27;;;;;;;;;;;20.50;99.90;;;;;;4970761;28;20364;-80
2021/07/15 11:53:11;;;;;;;;;;;20.50;99.90;;;;;;4971821;28;19941;-81
2021/07/15 11:55:37;;;;;;;;;;;20.50;99.90;;;;;;4974367;28;19907;-81
2021/07/15 11:58:02;;;;;;;;;;;20.30;99.90;;;;;;4959223;28;20336;-81
2021/07/15 12:00:28;;;;;;;;;;;20.50;99.90;;;;;;4963323;28;20335;-79
2021/07/15 12:02:56;;;;;;;;;;;20.50;99.90;;;;;;4963907;28;19949;-79
2021/07/15 12:05:29;;;;;;;;;;;20.40;99.90;;;;;;4965923;28;19944;-79
2021/07/15 12:08:04;;;;;;;;;;;20.40;99.90;;;;;;4966038;28;20038;-81
2021/07/15 12:10:33;;;;;;;;;;;20.40;99.90;;;;;;4951115;28;20063;-82
2021/07/15 12:12:59;;;;;;;;;;;20.30;99.90;;;;;;4965426;28;19918;-81
2021/07/15 12:15:26;;;;;;;;;;;20.30;99.90;;;;;;4969238;28;19912;-80
2021/07/15 12:17:53;;;;;;;;;;;20.30;99.90;;;;;;4963752;28;20797;-83
2021/07/15 12:20:19;;;;;;;;;;;20.20;99.90;;;;;;4964214;28;19920;-81
2021/07/15 12:22:46;;;;;;;;;;;20.30;99.90;;;;;;4968590;28;19906;-81
2021/07/15 12:25:18;;;;;;;;;;;20.10;99.90;;;;;;4969564;28;20459;-82
2021/07/15 12:27:45;;;;;;;;;;;20.00;99.90;;;;;;4966494;28;20264;-81
2021/07/15 12:30:11;;;;;;;;;;;20.00;99.90;;;;;;4968784;28;19915;-80
2021/07/15 12:32:37;;;;;;;;;;;20.00;99.90;;;;;;4952055;28;19946;-81
2021/07/15 12:35:11;;;;;;;;;;;20.10;99.90;;;;;;4958389;28;19910;-81
2021/07/15 12:37:36;;;;;;;;;;;20.20;99.90;;;;;;4950311;28;20036;-79
2021/07/15 12:40:05;;;;;;;;;;;20.30;99.90;;;;;;4960963;28;19914;-78
2021/07/15 12:42:31;;;;;;;;;;;20.40;99.90;;;;;;4962714;28;19913;-78
2021/07/15 12:44:56;;;;;;;;;;;20.50;99.90;;;;;;4965588;28;19915;-78
2021/07/15 12:47:22;;;;;;;;;;;20.50;99.90;;;;;;4949526;28;19925;-78
2021/07/15 12:49:47;;;;;;;;;;;20.70;99.90;;;;;;4959434;28;19910;-79
2021/07/15 12:52:13;;;;;;;;;;;20.70;99.90;;;;;;4956116;28;19910;-79
2021/07/15 12:54:42;;;;;;;;;;;20.70;99.90;;;;;;4954702;28;20440;-79
2021/07/15 12:57:09;;;;;;;;;;;21.00;99.90;;;;;;4963165;28;19918;-79
2021/07/15 12:59:35;;;;;;;;;;;21.10;99.90;;;;;;4959031;28;20228;-79
2021/07/15 13:02:00;;;;;;;;;;;21.20;99.90;;;;;;4958819;28;19914;-80
2021/07/15 13:04:26;;;;;;;;;;;21.20;99.90;;;;;;4957514;28;19910;-81
2021/07/15 13:06:57;;;;;;;;;;;21.40;99.90;;;;;;4948019;28;19911;-79
2021/07/15 13:14:41;;;;;;;;;;;21.80;99.90;;;;;;4946056;28;20404;-79
2021/07/15 13:17:06;;;;;;;;;;;21.90;99.90;;;;;;4959398;28;19922;-78
2021/07/15 13:19:36;;;;;;;;;;;21.90;99.90;;;;;;4960937;28;19914;-78
2021/07/15 13:22:12;;;;;;;;;;;22.00;99.90;;;;;;4958329;28;19911;-79
2021/07/15 13:24:39;;;;;;;;;;;22.10;99.90;;;;;;4948535;28;19921;-78
2021/07/15 13:27:11;;;;;;;;;;;22.20;99.90;;;;;;4955015;29;20045;-80
2021/07/15 13:29:36;;;;;;;;;;;22.40;99.90;;;;;;4946743;28;19933;-78
2021/07/15 13:32:13;;;;;;;;;;;22.50;99.90;;;;;;4957963;28;20246;-79
2021/07/15 13:34:39;;;;;;;;;;;22.30;99.90;;;;;;4949865;28;19920;-80
2021/07/15 13:37:06;;;;;;;;;;;22.40;99.90;;;;;;4955498;28;19914;-80
2021/07/15 13:39:34;;;;;;;;;;;22.40;99.90;;;;;;4974890;28;19918;-80
2021/07/15 13:42:00;;;;;;;;;;;22.40;99.90;;;;;;4960983;28;19914;-80
2021/07/15 13:44:25;;;;;;;;;;;22.30;99.90;;;;;;4967429;28;19910;-80
2021/07/15 13:46:59;;;;;;;;;;;22.40;99.90;;;;;;4962214;28;19914;-81
2021/07/15 13:49:24;;;;;;;;;;;22.60;99.90;;;;;;4961343;28;20360;-80
2021/07/15 13:52:01;;;;;;;;;;;22.30;99.90;;;;;;4954968;28;19957;-80
2021/07/15 13:54:26;;;;;;;;;;;22.10;99.90;;;;;;4960692;28;20333;-80
2021/07/15 13:56:52;;;;;;;;;;;22.10;99.90;;;;;;4953462;28;19911;-80
2021/07/15 13:59:17;;;;;;;;;;;22.00;99.90;;;;;;4964114;28;19921;-80
2021/07/15 14:01:43;;;;;;;;;;;22.00;99.90;;;;;;4967054;28;19914;-80
2021/07/15 14:04:12;;;;;;;;;;;22.00;99.90;;;;;;4960721;28;20045;-80
2021/07/15 14:06:38;;;;;;;;;;;21.80;99.90;;;;;;4965744;28;20005;-80
2021/07/15 14:09:03;;;;;;;;;;;21.80;99.90;;;;;;4962840;28;20055;-80
2021/07/15 14:11:29;;;;;;;;;;;22.00;99.90;;;;;;4964750;28;19910;-80
2021/07/15 14:13:57;;;;;;;;;;;22.00;99.90;;;;;;4958099;28;19914;-81
2021/07/15 14:16:27;;;;;;;;;;;22.10;99.90;;;;;;4964822;28;19921;-80
2021/07/15 14:19:01;;;;;;;;;;;22.10;99.90;;;;;;4963996;28;19925;-80
2021/07/15 14:21:30;;;;;;;;;;;22.30;99.90;;;;;;4969880;28;19921;-80
2021/07/15 14:23:55;;;;;;;;;;;22.40;99.90;;;;;;4962676;28;19949;-80